Arcadia, Texas
Current Conditions -  °F | °C
As of 10:53 PM on Saturday 20 Dec 2014 (Local Time) from KLVJ Reporting Station
Overcast Overcast  
Wind Chill: 12°   Ceiling: 2900
Heat Index: 12°   Visibility: 8mi
Dew Point:   Wind: 7mph
Humidity: 83%   Direction: 70°ENE
Pressure: 30.2"   Gusts: NA
Location:  29.3723°N, 95.1328°W
Report Text: KLVJ 210453Z AUTO 07006KT 8SM SCT023 OVC029 12/09 A3020 RMK AO2 SLP224 T01170089
Loading
Personal Weather Stations






























Interactive Weather Map New forecast layout! Learn more

10-Day Weather Forecast

Advertisements
Track Severe Weather on mobile